sensor_id;sensor_type;location;lat;lon;timestamp;P1;durP1;ratioP1;P2;durP2;ratioP2
9140;SDS011;46330;50.822;7.126;2022-10-16T00:02:22;7.97;;;4.47;;
9140;SDS011;46330;50.822;7.126;2022-10-16T00:04:50;9.10;;;4.30;;
9140;SDS011;46330;50.822;7.126;2022-10-16T00:07:18;8.20;;;4.25;;
9140;SDS011;46330;50.822;7.126;2022-10-16T00:09:45;9.38;;;4.85;;
9140;SDS011;46330;50.822;7.126;2022-10-16T00:12:13;8.95;;;5.03;;
9140;SDS011;46330;50.822;7.126;2022-10-16T00:14:42;7.88;;;4.15;;
9140;SDS011;46330;50.822;7.126;2022-10-16T00:17:10;7.43;;;4.32;;
9140;SDS011;46330;50.822;7.126;2022-10-16T00:19:39;6.45;;;4.13;;
9140;SDS011;46330;50.822;7.126;2022-10-16T00:22:07;13.18;;;4.72;;
9140;SDS011;46330;50.822;7.126;2022-10-16T00:24:36;11.25;;;5.18;;
9140;SDS011;46330;50.822;7.126;2022-10-16T00:27:03;14.85;;;6.28;;
9140;SDS011;46330;50.822;7.126;2022-10-16T00:29:31;6.05;;;3.88;;
9140;SDS011;46330;50.822;7.126;2022-10-16T00:32:00;10.15;;;4.03;;
9140;SDS011;46330;50.822;7.126;2022-10-16T00:34:28;6.32;;;3.65;;
9140;SDS011;46330;50.822;7.126;2022-10-16T00:36:56;7.82;;;3.97;;
9140;SDS011;46330;50.822;7.126;2022-10-16T00:39:24;10.02;;;3.90;;
9140;SDS011;46330;50.822;7.126;2022-10-16T00:41:52;5.85;;;2.92;;
9140;SDS011;46330;50.822;7.126;2022-10-16T00:47:12;4.72;;;2.60;;
9140;SDS011;46330;50.822;7.126;2022-10-16T00:49:44;4.60;;;2.70;;
9140;SDS011;46330;50.822;7.126;2022-10-16T00:52:15;4.45;;;2.75;;
9140;SDS011;46330;50.822;7.126;2022-10-16T00:54:43;9.45;;;2.67;;
9140;SDS011;46330;50.822;7.126;2022-10-16T00:57:13;6.07;;;2.88;;
9140;SDS011;46330;50.822;7.126;2022-10-16T00:59:41;4.30;;;2.95;;
9140;SDS011;46330;50.822;7.126;2022-10-16T01:02:12;5.95;;;2.80;;
9140;SDS011;46330;50.822;7.126;2022-10-16T01:04:41;6.85;;;2.75;;
9140;SDS011;46330;50.822;7.126;2022-10-16T01:07:12;5.32;;;2.42;;
9140;SDS011;46330;50.822;7.126;2022-10-16T01:09:53;4.85;;;2.97;;
9140;SDS011;46330;50.822;7.126;2022-10-16T01:12:32;6.20;;;2.95;;
9140;SDS011;46330;50.822;7.126;2022-10-16T01:15:10;6.55;;;2.65;;
9140;SDS011;46330;50.822;7.126;2022-10-16T01:17:47;4.35;;;2.83;;
9140;SDS011;46330;50.822;7.126;2022-10-16T01:20:39;4.47;;;2.88;;
9140;SDS011;46330;50.822;7.126;2022-10-16T01:23:15;4.28;;;2.72;;
9140;SDS011;46330;50.822;7.126;2022-10-16T01:26:04;6.50;;;2.80;;
9140;SDS011;46330;50.822;7.126;2022-10-16T01:28:44;5.45;;;2.50;;
9140;SDS011;46330;50.822;7.126;2022-10-16T01:31:18;5.95;;;2.55;;
9140;SDS011;46330;50.822;7.126;2022-10-16T01:33:50;6.03;;;3.15;;
9140;SDS011;46330;50.822;7.126;2022-10-16T01:36:29;2.97;;;2.20;;
9140;SDS011;46330;50.822;7.126;2022-10-16T01:39:02;4.35;;;2.70;;
9140;SDS011;46330;50.822;7.126;2022-10-16T01:41:32;4.03;;;2.55;;
9140;SDS011;46330;50.822;7.126;2022-10-16T01:44:05;5.55;;;2.90;;
9140;SDS011;46330;50.822;7.126;2022-10-16T01:46:38;6.63;;;2.95;;
9140;SDS011;46330;50.822;7.126;2022-10-16T01:49:08;6.35;;;3.10;;
9140;SDS011;46330;50.822;7.126;2022-10-16T01:51:37;6.10;;;2.65;;
9140;SDS011;46330;50.822;7.126;2022-10-16T01:54:06;5.07;;;3.65;;
9140;SDS011;46330;50.822;7.126;2022-10-16T01:56:35;7.03;;;3.17;;
9140;SDS011;46330;50.822;7.126;2022-10-16T01:59:09;7.72;;;2.90;;
9140;SDS011;46330;50.822;7.126;2022-10-16T02:01:40;6.57;;;3.08;;
9140;SDS011;46330;50.822;7.126;2022-10-16T02:04:14;9.45;;;2.90;;
9140;SDS011;46330;50.822;7.126;2022-10-16T02:06:44;4.88;;;2.63;;
9140;SDS011;46330;50.822;7.126;2022-10-16T02:09:12;4.20;;;2.70;;
9140;SDS011;46330;50.822;7.126;2022-10-16T02:11:42;3.10;;;2.40;;
9140;SDS011;46330;50.822;7.126;2022-10-16T02:14:11;6.35;;;2.72;;
9140;SDS011;46330;50.822;7.126;2022-10-16T02:16:40;3.83;;;2.55;;
9140;SDS011;46330;50.822;7.126;2022-10-16T02:19:10;3.63;;;2.60;;
9140;SDS011;46330;50.822;7.126;2022-10-16T02:21:40;4.75;;;2.30;;
9140;SDS011;46330;50.822;7.126;2022-10-16T02:24:13;4.22;;;2.40;;
9140;SDS011;46330;50.822;7.126;2022-10-16T02:26:48;4.25;;;2.42;;
9140;SDS011;46330;50.822;7.126;2022-10-16T02:29:26;3.88;;;2.50;;
9140;SDS011;46330;50.822;7.126;2022-10-16T02:31:55;7.95;;;2.80;;
9140;SDS011;46330;50.822;7.126;2022-10-16T02:34:28;2.88;;;2.50;;
9140;SDS011;46330;50.822;7.126;2022-10-16T02:36:59;3.92;;;2.50;;
9140;SDS011;46330;50.822;7.126;2022-10-16T02:39:29;8.18;;;2.67;;
9140;SDS011;46330;50.822;7.126;2022-10-16T02:41:57;5.65;;;2.50;;
9140;SDS011;46330;50.822;7.126;2022-10-16T02:44:26;2.50;;;2.30;;
9140;SDS011;46330;50.822;7.126;2022-10-16T02:46:54;3.45;;;2.50;;
9140;SDS011;46330;50.822;7.126;2022-10-16T02:49:22;3.58;;;2.47;;
9140;SDS011;46330;50.822;7.126;2022-10-16T02:51:50;5.07;;;2.40;;
9140;SDS011;46330;50.822;7.126;2022-10-16T02:54:17;3.47;;;2.40;;
9140;SDS011;46330;50.822;7.126;2022-10-16T02:56:45;3.55;;;2.42;;
9140;SDS011;46330;50.822;7.126;2022-10-16T02:59:13;6.38;;;3.05;;
9140;SDS011;46330;50.822;7.126;2022-10-16T03:01:42;3.40;;;2.33;;
9140;SDS011;46330;50.822;7.126;2022-10-16T03:04:10;4.50;;;2.50;;
9140;SDS011;46330;50.822;7.126;2022-10-16T03:06:38;3.33;;;2.40;;
9140;SDS011;46330;50.822;7.126;2022-10-16T03:09:06;3.10;;;2.30;;
9140;SDS011;46330;50.822;7.126;2022-10-16T03:11:34;3.80;;;2.47;;
9140;SDS011;46330;50.822;7.126;2022-10-16T03:14:02;5.40;;;2.40;;
9140;SDS011;46330;50.822;7.126;2022-10-16T03:16:29;5.88;;;2.40;;
9140;SDS011;46330;50.822;7.126;2022-10-16T03:18:58;4.85;;;2.40;;
9140;SDS011;46330;50.822;7.126;2022-10-16T03:21:26;4.15;;;2.10;;
9140;SDS011;46330;50.822;7.126;2022-10-16T03:23:54;5.03;;;2.10;;
9140;SDS011;46330;50.822;7.126;2022-10-16T03:26:22;2.45;;;1.85;;
9140;SDS011;46330;50.822;7.126;2022-10-16T03:28:49;4.10;;;2.00;;
9140;SDS011;46330;50.822;7.126;2022-10-16T03:31:17;5.28;;;2.30;;
9140;SDS011;46330;50.822;7.126;2022-10-16T03:33:45;6.03;;;2.13;;
9140;SDS011;46330;50.822;7.126;2022-10-16T03:36:14;2.97;;;1.95;;
9140;SDS011;46330;50.822;7.126;2022-10-16T03:38:42;3.42;;;1.85;;
9140;SDS011;46330;50.822;7.126;2022-10-16T03:41:10;6.68;;;1.80;;
9140;SDS011;46330;50.822;7.126;2022-10-16T03:43:38;1.85;;;1.50;;
9140;SDS011;46330;50.822;7.126;2022-10-16T03:46:05;2.53;;;1.70;;
9140;SDS011;46330;50.822;7.126;2022-10-16T03:48:33;5.40;;;1.52;;
9140;SDS011;46330;50.822;7.126;2022-10-16T03:51:01;2.50;;;1.70;;
9140;SDS011;46330;50.822;7.126;2022-10-16T03:53:30;2.75;;;1.67;;
9140;SDS011;46330;50.822;7.126;2022-10-16T03:55:58;1.70;;;1.60;;
9140;SDS011;46330;50.822;7.126;2022-10-16T03:58:26;3.20;;;1.48;;
9140;SDS011;46330;50.822;7.126;2022-10-16T04:00:54;1.83;;;1.60;;
9140;SDS011;46330;50.822;7.126;2022-10-16T04:03:22;1.88;;;1.60;;
9140;SDS011;46330;50.822;7.126;2022-10-16T04:05:50;3.28;;;2.05;;
9140;SDS011;46330;50.822;7.126;2022-10-16T04:08:18;1.50;;;1.40;;
9140;SDS011;46330;50.822;7.126;2022-10-16T04:10:47;3.28;;;1.40;;
9140;SDS011;46330;50.822;7.126;2022-10-16T04:13:14;3.58;;;1.33;;
9140;SDS011;46330;50.822;7.126;2022-10-16T04:15:42;3.03;;;1.70;;
9140;SDS011;46330;50.822;7.126;2022-10-16T04:18:11;2.85;;;1.50;;
9140;SDS011;46330;50.822;7.126;2022-10-16T04:20:40;2.95;;;1.45;;
9140;SDS011;46330;50.822;7.126;2022-10-16T04:23:08;2.88;;;1.45;;
9140;SDS011;46330;50.822;7.126;2022-10-16T04:25:35;2.28;;;1.60;;
9140;SDS011;46330;50.822;7.126;2022-10-16T04:28:05;2.92;;;1.50;;
9140;SDS011;46330;50.822;7.126;2022-10-16T04:30:32;2.60;;;1.40;;
9140;SDS011;46330;50.822;7.126;2022-10-16T04:33:00;5.90;;;1.88;;
9140;SDS011;46330;50.822;7.126;2022-10-16T04:35:28;3.03;;;1.40;;
9140;SDS011;46330;50.822;7.126;2022-10-16T04:37:56;3.58;;;1.60;;
9140;SDS011;46330;50.822;7.126;2022-10-16T04:40:24;4.78;;;1.80;;
9140;SDS011;46330;50.822;7.126;2022-10-16T04:42:52;1.80;;;1.42;;
9140;SDS011;46330;50.822;7.126;2022-10-16T04:45:21;2.55;;;1.35;;
9140;SDS011;46330;50.822;7.126;2022-10-16T04:47:49;1.63;;;1.45;;
9140;SDS011;46330;50.822;7.126;2022-10-16T04:50:17;1.75;;;1.50;;
9140;SDS011;46330;50.822;7.126;2022-10-16T04:53:00;1.95;;;1.58;;
9140;SDS011;46330;50.822;7.126;2022-10-16T04:55:28;2.65;;;1.45;;
9140;SDS011;46330;50.822;7.126;2022-10-16T04:57:55;6.13;;;1.60;;
9140;SDS011;46330;50.822;7.126;2022-10-16T05:00:25;2.58;;;1.38;;
9140;SDS011;46330;50.822;7.126;2022-10-16T05:02:52;2.72;;;1.50;;
9140;SDS011;46330;50.822;7.126;2022-10-16T05:05:20;3.08;;;1.40;;
9140;SDS011;46330;50.822;7.126;2022-10-16T05:07:49;2.13;;;1.40;;
9140;SDS011;46330;50.822;7.126;2022-10-16T05:10:17;1.38;;;1.27;;
9140;SDS011;46330;50.822;7.126;2022-10-16T05:12:45;2.38;;;1.52;;
9140;SDS011;46330;50.822;7.126;2022-10-16T05:15:13;3.60;;;1.60;;
9140;SDS011;46330;50.822;7.126;2022-10-16T05:17:42;2.35;;;1.40;;
9140;SDS011;46330;50.822;7.126;2022-10-16T05:20:10;5.03;;;1.60;;
9140;SDS011;46330;50.822;7.126;2022-10-16T05:22:38;2.63;;;1.45;;
9140;SDS011;46330;50.822;7.126;2022-10-16T05:25:06;1.50;;;1.40;;
9140;SDS011;46330;50.822;7.126;2022-10-16T05:27:34;3.42;;;1.40;;
9140;SDS011;46330;50.822;7.126;2022-10-16T05:30:02;3.08;;;1.50;;
9140;SDS011;46330;50.822;7.126;2022-10-16T05:32:35;1.45;;;1.35;;
9140;SDS011;46330;50.822;7.126;2022-10-16T05:35:04;2.15;;;1.70;;
9140;SDS011;46330;50.822;7.126;2022-10-16T05:37:37;3.40;;;1.70;;
9140;SDS011;46330;50.822;7.126;2022-10-16T05:40:06;2.40;;;1.70;;
9140;SDS011;46330;50.822;7.126;2022-10-16T05:42:35;5.68;;;1.52;;
9140;SDS011;46330;50.822;7.126;2022-10-16T05:45:03;2.42;;;2.10;;
9140;SDS011;46330;50.822;7.126;2022-10-16T05:47:32;2.70;;;2.00;;
9140;SDS011;46330;50.822;7.126;2022-10-16T05:50:00;3.20;;;2.08;;
9140;SDS011;46330;50.822;7.126;2022-10-16T05:52:29;2.25;;;1.88;;
9140;SDS011;46330;50.822;7.126;2022-10-16T05:54:57;2.20;;;1.80;;
9140;SDS011;46330;50.822;7.126;2022-10-16T05:57:25;2.50;;;1.88;;
9140;SDS011;46330;50.822;7.126;2022-10-16T05:59:53;3.58;;;1.98;;
9140;SDS011;46330;50.822;7.126;2022-10-16T06:02:21;2.78;;;1.80;;
9140;SDS011;46330;50.822;7.126;2022-10-16T06:04:49;4.10;;;1.67;;
9140;SDS011;46330;50.822;7.126;2022-10-16T06:07:19;4.60;;;2.80;;
9140;SDS011;46330;50.822;7.126;2022-10-16T06:09:49;4.82;;;2.10;;
9140;SDS011;46330;50.822;7.126;2022-10-16T06:12:17;3.22;;;1.90;;
9140;SDS011;46330;50.822;7.126;2022-10-16T06:14:45;5.15;;;2.35;;
9140;SDS011;46330;50.822;7.126;2022-10-16T06:17:14;5.60;;;2.40;;
9140;SDS011;46330;50.822;7.126;2022-10-16T06:19:42;4.40;;;2.40;;
9140;SDS011;46330;50.822;7.126;2022-10-16T06:22:09;4.10;;;2.15;;
9140;SDS011;46330;50.822;7.126;2022-10-16T06:24:37;3.35;;;2.20;;
9140;SDS011;46330;50.822;7.126;2022-10-16T06:27:06;3.03;;;2.38;;
9140;SDS011;46330;50.822;7.126;2022-10-16T06:29:34;3.33;;;2.20;;
9140;SDS011;46330;50.822;7.126;2022-10-16T06:32:02;2.50;;;2.00;;
9140;SDS011;46330;50.822;7.126;2022-10-16T06:34:30;5.05;;;2.40;;
9140;SDS011;46330;50.822;7.126;2022-10-16T06:36:58;4.07;;;2.40;;
9140;SDS011;46330;50.822;7.126;2022-10-16T06:39:25;3.17;;;2.17;;
9140;SDS011;46330;50.822;7.126;2022-10-16T06:41:53;4.55;;;3.05;;
9140;SDS011;46330;50.822;7.126;2022-10-16T06:44:26;3.78;;;2.38;;
9140;SDS011;46330;50.822;7.126;2022-10-16T06:46:54;5.25;;;2.30;;
9140;SDS011;46330;50.822;7.126;2022-10-16T06:49:21;5.22;;;2.50;;
9140;SDS011;46330;50.822;7.126;2022-10-16T06:51:50;3.97;;;2.40;;
9140;SDS011;46330;50.822;7.126;2022-10-16T06:54:17;8.15;;;2.90;;
9140;SDS011;46330;50.822;7.126;2022-10-16T06:56:45;4.45;;;2.45;;
9140;SDS011;46330;50.822;7.126;2022-10-16T06:59:13;4.05;;;2.45;;
9140;SDS011;46330;50.822;7.126;2022-10-16T07:01:42;5.95;;;3.15;;
9140;SDS011;46330;50.822;7.126;2022-10-16T07:04:09;4.82;;;2.60;;
9140;SDS011;46330;50.822;7.126;2022-10-16T07:06:37;3.00;;;2.55;;
9140;SDS011;46330;50.822;7.126;2022-10-16T07:09:06;5.38;;;2.50;;
9140;SDS011;46330;50.822;7.126;2022-10-16T07:11:36;3.33;;;2.50;;
9140;SDS011;46330;50.822;7.126;2022-10-16T07:14:05;4.55;;;2.28;;
9140;SDS011;46330;50.822;7.126;2022-10-16T07:16:43;3.70;;;2.88;;
9140;SDS011;46330;50.822;7.126;2022-10-16T07:19:11;4.53;;;2.85;;
9140;SDS011;46330;50.822;7.126;2022-10-16T07:21:41;2.60;;;2.40;;
9140;SDS011;46330;50.822;7.126;2022-10-16T07:24:10;3.65;;;2.45;;
9140;SDS011;46330;50.822;7.126;2022-10-16T07:26:40;5.28;;;2.30;;
9140;SDS011;46330;50.822;7.126;2022-10-16T07:29:12;2.97;;;2.10;;
9140;SDS011;46330;50.822;7.126;2022-10-16T07:31:40;3.55;;;2.40;;
9140;SDS011;46330;50.822;7.126;2022-10-16T07:34:10;6.20;;;2.42;;
9140;SDS011;46330;50.822;7.126;2022-10-16T07:36:39;4.03;;;2.30;;
9140;SDS011;46330;50.822;7.126;2022-10-16T07:39:12;2.55;;;2.25;;
9140;SDS011;46330;50.822;7.126;2022-10-16T07:41:40;2.97;;;2.42;;
9140;SDS011;46330;50.822;7.126;2022-10-16T07:44:08;5.22;;;1.85;;
9140;SDS011;46330;50.822;7.126;2022-10-16T07:46:35;4.75;;;2.00;;
9140;SDS011;46330;50.822;7.126;2022-10-16T07:49:03;3.45;;;2.13;;
9140;SDS011;46330;50.822;7.126;2022-10-16T07:51:33;3.95;;;2.17;;
9140;SDS011;46330;50.822;7.126;2022-10-16T07:54:00;3.33;;;2.15;;
9140;SDS011;46330;50.822;7.126;2022-10-16T07:56:29;3.03;;;2.05;;
9140;SDS011;46330;50.822;7.126;2022-10-16T07:58:58;4.47;;;2.22;;
9140;SDS011;46330;50.822;7.126;2022-10-16T08:01:26;7.20;;;2.45;;
9140;SDS011;46330;50.822;7.126;2022-10-16T08:03:54;4.88;;;2.13;;
9140;SDS011;46330;50.822;7.126;2022-10-16T08:06:22;4.80;;;2.17;;
9140;SDS011;46330;50.822;7.126;2022-10-16T08:08:55;4.45;;;2.20;;
9140;SDS011;46330;50.822;7.126;2022-10-16T08:11:23;4.28;;;2.20;;
9140;SDS011;46330;50.822;7.126;2022-10-16T08:13:51;4.72;;;2.20;;
9140;SDS011;46330;50.822;7.126;2022-10-16T08:16:18;4.05;;;2.10;;
9140;SDS011;46330;50.822;7.126;2022-10-16T08:18:46;3.28;;;2.28;;
9140;SDS011;46330;50.822;7.126;2022-10-16T08:21:15;5.45;;;2.40;;
9140;SDS011;46330;50.822;7.126;2022-10-16T08:23:47;4.20;;;2.58;;
9140;SDS011;46330;50.822;7.126;2022-10-16T08:26:24;2.90;;;2.17;;
9140;SDS011;46330;50.822;7.126;2022-10-16T08:28:53;5.75;;;1.80;;
9140;SDS011;46330;50.822;7.126;2022-10-16T08:31:22;3.28;;;1.73;;
9140;SDS011;46330;50.822;7.126;2022-10-16T08:33:50;2.72;;;1.60;;
9140;SDS011;46330;50.822;7.126;2022-10-16T08:36:18;1.67;;;1.40;;
9140;SDS011;46330;50.822;7.126;2022-10-16T08:38:47;4.03;;;1.40;;
9140;SDS011;46330;50.822;7.126;2022-10-16T08:41:19;2.28;;;1.42;;
9140;SDS011;46330;50.822;7.126;2022-10-16T08:44:09;4.68;;;1.83;;
9140;SDS011;46330;50.822;7.126;2022-10-16T08:46:59;1.95;;;1.25;;
9140;SDS011;46330;50.822;7.126;2022-10-16T08:49:33;3.38;;;1.10;;
9140;SDS011;46330;50.822;7.126;2022-10-16T08:52:01;2.97;;;1.52;;
9140;SDS011;46330;50.822;7.126;2022-10-16T08:54:29;2.58;;;1.27;;
9140;SDS011;46330;50.822;7.126;2022-10-16T08:57:07;2.80;;;0.90;;
9140;SDS011;46330;50.822;7.126;2022-10-16T09:02:14;1.58;;;0.80;;
9140;SDS011;46330;50.822;7.126;2022-10-16T09:07:54;1.75;;;1.13;;
9140;SDS011;46330;50.822;7.126;2022-10-16T09:10:39;1.80;;;0.88;;
9140;SDS011;46330;50.822;7.126;2022-10-16T09:13:18;3.05;;;0.77;;
9140;SDS011;46330;50.822;7.126;2022-10-16T09:15:55;1.67;;;0.85;;
9140;SDS011;46330;50.822;7.126;2022-10-16T09:18:29;2.47;;;0.73;;
9140;SDS011;46330;50.822;7.126;2022-10-16T09:21:06;4.57;;;0.73;;
9140;SDS011;46330;50.822;7.126;2022-10-16T09:23:39;1.90;;;0.80;;
9140;SDS011;46330;50.822;7.126;2022-10-16T09:26:09;1.05;;;0.50;;
9140;SDS011;46330;50.822;7.126;2022-10-16T09:28:39;3.33;;;0.70;;
9140;SDS011;46330;50.822;7.126;2022-10-16T09:31:12;3.05;;;0.50;;
9140;SDS011;46330;50.822;7.126;2022-10-16T09:33:42;0.50;;;0.50;;
9140;SDS011;46330;50.822;7.126;2022-10-16T09:36:12;1.75;;;0.80;;
9140;SDS011;46330;50.822;7.126;2022-10-16T09:38:41;0.43;;;0.43;;
9140;SDS011;46330;50.822;7.126;2022-10-16T09:41:13;0.90;;;0.70;;
9140;SDS011;46330;50.822;7.126;2022-10-16T09:43:48;1.70;;;0.70;;
9140;SDS011;46330;50.822;7.126;2022-10-16T09:48:55;2.45;;;0.80;;
9140;SDS011;46330;50.822;7.126;2022-10-16T09:51:25;0.75;;;0.55;;
9140;SDS011;46330;50.822;7.126;2022-10-16T09:53:55;0.77;;;0.60;;
9140;SDS011;46330;50.822;7.126;2022-10-16T09:56:25;0.98;;;0.73;;
9140;SDS011;46330;50.822;7.126;2022-10-16T09:58:55;0.88;;;0.47;;
9140;SDS011;46330;50.822;7.126;2022-10-16T10:01:27;0.90;;;0.52;;
9140;SDS011;46330;50.822;7.126;2022-10-16T10:03:58;0.57;;;0.30;;
9140;SDS011;46330;50.822;7.126;2022-10-16T10:06:29;0.75;;;0.50;;
9140;SDS011;46330;50.822;7.126;2022-10-16T10:09:02;1.85;;;0.47;;
9140;SDS011;46330;50.822;7.126;2022-10-16T10:11:36;1.42;;;0.40;;
9140;SDS011;46330;50.822;7.126;2022-10-16T10:17:09;0.80;;;0.30;;
9140;SDS011;46330;50.822;7.126;2022-10-16T10:19:40;3.03;;;0.40;;
9140;SDS011;46330;50.822;7.126;2022-10-16T10:22:19;1.98;;;0.40;;
9140;SDS011;46330;50.822;7.126;2022-10-16T10:24:55;2.00;;;0.80;;
9140;SDS011;46330;50.822;7.126;2022-10-16T10:27:26;3.05;;;0.40;;
9140;SDS011;46330;50.822;7.126;2022-10-16T10:30:04;0.52;;;0.38;;
9140;SDS011;46330;50.822;7.126;2022-10-16T10:35:14;2.05;;;0.47;;
9140;SDS011;46330;50.822;7.126;2022-10-16T10:37:51;2.13;;;0.47;;
9140;SDS011;46330;50.822;7.126;2022-10-16T10:40:32;0.93;;;0.20;;
9140;SDS011;46330;50.822;7.126;2022-10-16T10:43:10;1.63;;;0.40;;
9140;SDS011;46330;50.822;7.126;2022-10-16T10:45:58;2.40;;;0.45;;
9140;SDS011;46330;50.822;7.126;2022-10-16T10:48:38;1.38;;;0.50;;
9140;SDS011;46330;50.822;7.126;2022-10-16T10:51:19;2.30;;;1.67;;
9140;SDS011;46330;50.822;7.126;2022-10-16T10:54:00;1.52;;;0.90;;
9140;SDS011;46330;50.822;7.126;2022-10-16T10:56:41;0.70;;;0.70;;
9140;SDS011;46330;50.822;7.126;2022-10-16T10:59:22;1.60;;;0.65;;
9140;SDS011;46330;50.822;7.126;2022-10-16T11:02:00;1.65;;;0.35;;
9140;SDS011;46330;50.822;7.126;2022-10-16T11:04:52;2.03;;;0.63;;
9140;SDS011;46330;50.822;7.126;2022-10-16T11:07:36;2.80;;;0.20;;
9140;SDS011;46330;50.822;7.126;2022-10-16T11:10:20;2.08;;;0.30;;
9140;SDS011;46330;50.822;7.126;2022-10-16T11:12:51;0.20;;;0.10;;
9140;SDS011;46330;50.822;7.126;2022-10-16T11:15:23;0.75;;;0.30;;
9140;SDS011;46330;50.822;7.126;2022-10-16T11:17:55;0.93;;;0.30;;
9140;SDS011;46330;50.822;7.126;2022-10-16T11:20:29;0.65;;;0.30;;
9140;SDS011;46330;50.822;7.126;2022-10-16T11:23:00;0.90;;;0.43;;
9140;SDS011;46330;50.822;7.126;2022-10-16T11:25:33;1.27;;;1.17;;
9140;SDS011;46330;50.822;7.126;2022-10-16T11:28:01;0.85;;;0.30;;
9140;SDS011;46330;50.822;7.126;2022-10-16T11:30:45;0.28;;;0.15;;
9140;SDS011;46330;50.822;7.126;2022-10-16T11:33:22;0.88;;;0.57;;
9140;SDS011;46330;50.822;7.126;2022-10-16T11:36:01;0.82;;;0.40;;
9140;SDS011;46330;50.822;7.126;2022-10-16T11:38:38;2.25;;;0.38;;
9140;SDS011;46330;50.822;7.126;2022-10-16T11:41:15;0.73;;;0.17;;
9140;SDS011;46330;50.822;7.126;2022-10-16T11:43:50;0.70;;;0.35;;
9140;SDS011;46330;50.822;7.126;2022-10-16T11:46:23;0.57;;;0.40;;
9140;SDS011;46330;50.822;7.126;2022-10-16T11:48:55;1.70;;;0.50;;
9140;SDS011;46330;50.822;7.126;2022-10-16T11:51:33;2.22;;;0.40;;
9140;SDS011;46330;50.822;7.126;2022-10-16T11:54:08;1.35;;;0.20;;
9140;SDS011;46330;50.822;7.126;2022-10-16T11:56:47;1.42;;;0.40;;
9140;SDS011;46330;50.822;7.126;2022-10-16T11:59:20;2.17;;;0.47;;
9140;SDS011;46330;50.822;7.126;2022-10-16T12:01:54;0.73;;;0.50;;
9140;SDS011;46330;50.822;7.126;2022-10-16T12:04:30;1.40;;;0.98;;
9140;SDS011;46330;50.822;7.126;2022-10-16T12:07:08;1.40;;;0.70;;
9140;SDS011;46330;50.822;7.126;2022-10-16T12:09:39;1.13;;;0.43;;
9140;SDS011;46330;50.822;7.126;2022-10-16T12:12:23;0.80;;;0.43;;
9140;SDS011;46330;50.822;7.126;2022-10-16T12:15:00;1.55;;;0.30;;
9140;SDS011;46330;50.822;7.126;2022-10-16T12:17:47;1.85;;;0.30;;
9140;SDS011;46330;50.822;7.126;2022-10-16T12:20:20;0.38;;;0.30;;
9140;SDS011;46330;50.822;7.126;2022-10-16T12:22:56;2.13;;;0.38;;
9140;SDS011;46330;50.822;7.126;2022-10-16T12:25:28;1.30;;;0.40;;
9140;SDS011;46330;50.822;7.126;2022-10-16T12:28:01;2.13;;;0.50;;
9140;SDS011;46330;50.822;7.126;2022-10-16T12:30:33;1.67;;;0.30;;
9140;SDS011;46330;50.822;7.126;2022-10-16T12:33:03;1.27;;;0.30;;
9140;SDS011;46330;50.822;7.126;2022-10-16T12:35:33;1.00;;;0.43;;
9140;SDS011;46330;50.822;7.126;2022-10-16T12:38:17;1.33;;;0.47;;
9140;SDS011;46330;50.822;7.126;2022-10-16T12:40:47;0.88;;;0.45;;
9140;SDS011;46330;50.822;7.126;2022-10-16T12:43:35;1.10;;;0.40;;
9140;SDS011;46330;50.822;7.126;2022-10-16T12:46:20;2.08;;;0.60;;
9140;SDS011;46330;50.822;7.126;2022-10-16T12:48:50;0.57;;;0.40;;
9140;SDS011;46330;50.822;7.126;2022-10-16T12:51:34;1.75;;;1.10;;
9140;SDS011;46330;50.822;7.126;2022-10-16T12:54:10;5.60;;;1.30;;
9140;SDS011;46330;50.822;7.126;2022-10-16T12:56:42;1.40;;;0.50;;
9140;SDS011;46330;50.822;7.126;2022-10-16T12:59:21;1.45;;;0.50;;
9140;SDS011;46330;50.822;7.126;2022-10-16T13:02:04;3.50;;;0.50;;
9140;SDS011;46330;50.822;7.126;2022-10-16T13:04:53;0.85;;;0.40;;
9140;SDS011;46330;50.822;7.126;2022-10-16T13:07:36;0.95;;;0.40;;
9140;SDS011;46330;50.822;7.126;2022-10-16T13:10:16;2.35;;;0.50;;
9140;SDS011;46330;50.822;7.126;2022-10-16T13:16:11;0.77;;;0.40;;
9140;SDS011;46330;50.822;7.126;2022-10-16T13:18:49;2.25;;;0.55;;
9140;SDS011;46330;50.822;7.126;2022-10-16T13:21:29;0.80;;;0.70;;
9140;SDS011;46330;50.822;7.126;2022-10-16T13:24:11;4.38;;;0.55;;
9140;SDS011;46330;50.822;7.126;2022-10-16T13:26:51;3.08;;;0.80;;
9140;SDS011;46330;50.822;7.126;2022-10-16T13:29:28;2.40;;;0.60;;
9140;SDS011;46330;50.822;7.126;2022-10-16T13:31:57;1.33;;;0.60;;
9140;SDS011;46330;50.822;7.126;2022-10-16T13:34:26;0.68;;;0.60;;
9140;SDS011;46330;50.822;7.126;2022-10-16T13:36:54;1.35;;;0.47;;
9140;SDS011;46330;50.822;7.126;2022-10-16T13:39:24;1.48;;;0.68;;
9140;SDS011;46330;50.822;7.126;2022-10-16T13:42:03;1.73;;;0.30;;
9140;SDS011;46330;50.822;7.126;2022-10-16T13:44:36;4.00;;;0.80;;
9140;SDS011;46330;50.822;7.126;2022-10-16T13:47:14;2.42;;;1.10;;
9140;SDS011;46330;50.822;7.126;2022-10-16T13:49:43;1.02;;;0.60;;
9140;SDS011;46330;50.822;7.126;2022-10-16T13:52:17;1.20;;;0.98;;
9140;SDS011;46330;50.822;7.126;2022-10-16T13:54:47;0.47;;;0.30;;
9140;SDS011;46330;50.822;7.126;2022-10-16T13:57:17;3.25;;;0.90;;
9140;SDS011;46330;50.822;7.126;2022-10-16T13:59:53;3.25;;;1.27;;
9140;SDS011;46330;50.822;7.126;2022-10-16T14:02:22;6.47;;;1.98;;
9140;SDS011;46330;50.822;7.126;2022-10-16T14:04:54;1.55;;;0.50;;
9140;SDS011;46330;50.822;7.126;2022-10-16T14:07:23;3.30;;;1.20;;
9140;SDS011;46330;50.822;7.126;2022-10-16T14:09:53;2.95;;;0.77;;
9140;SDS011;46330;50.822;7.126;2022-10-16T14:12:23;2.85;;;1.00;;
9140;SDS011;46330;50.822;7.126;2022-10-16T14:14:54;1.88;;;0.65;;
9140;SDS011;46330;50.822;7.126;2022-10-16T14:17:24;1.13;;;0.70;;
9140;SDS011;46330;50.822;7.126;2022-10-16T14:19:54;0.77;;;0.57;;
9140;SDS011;46330;50.822;7.126;2022-10-16T14:22:30;0.40;;;0.30;;
9140;SDS011;46330;50.822;7.126;2022-10-16T14:25:00;0.77;;;0.40;;
9140;SDS011;46330;50.822;7.126;2022-10-16T14:27:42;1.45;;;0.55;;
9140;SDS011;46330;50.822;7.126;2022-10-16T14:30:14;2.13;;;0.30;;
9140;SDS011;46330;50.822;7.126;2022-10-16T14:32:53;0.93;;;0.40;;
9140;SDS011;46330;50.822;7.126;2022-10-16T14:35:22;1.08;;;0.60;;
9140;SDS011;46330;50.822;7.126;2022-10-16T14:37:52;1.23;;;0.50;;
9140;SDS011;46330;50.822;7.126;2022-10-16T14:40:21;2.30;;;0.60;;
9140;SDS011;46330;50.822;7.126;2022-10-16T14:42:53;1.92;;;0.70;;
9140;SDS011;46330;50.822;7.126;2022-10-16T14:45:22;1.63;;;0.68;;
9140;SDS011;46330;50.822;7.126;2022-10-16T14:47:54;3.67;;;0.90;;
9140;SDS011;46330;50.822;7.126;2022-10-16T14:50:24;1.25;;;0.60;;
9140;SDS011;46330;50.822;7.126;2022-10-16T14:52:52;1.83;;;0.85;;
9140;SDS011;46330;50.822;7.126;2022-10-16T14:55:20;1.35;;;1.00;;
9140;SDS011;46330;50.822;7.126;2022-10-16T14:57:54;1.38;;;1.20;;
9140;SDS011;46330;50.822;7.126;2022-10-16T15:00:26;4.05;;;1.27;;
9140;SDS011;46330;50.822;7.126;2022-10-16T15:02:54;2.25;;;1.10;;
9140;SDS011;46330;50.822;7.126;2022-10-16T15:05:22;2.67;;;1.23;;
9140;SDS011;46330;50.822;7.126;2022-10-16T15:07:52;1.50;;;1.00;;
9140;SDS011;46330;50.822;7.126;2022-10-16T15:10:22;3.58;;;1.00;;
9140;SDS011;46330;50.822;7.126;2022-10-16T15:12:51;1.00;;;0.90;;
9140;SDS011;46330;50.822;7.126;2022-10-16T15:15:33;0.70;;;0.70;;
9140;SDS011;46330;50.822;7.126;2022-10-16T15:18:04;2.28;;;0.90;;
9140;SDS011;46330;50.822;7.126;2022-10-16T15:20:33;1.77;;;1.20;;
9140;SDS011;46330;50.822;7.126;2022-10-16T15:23:02;1.02;;;0.93;;
9140;SDS011;46330;50.822;7.126;2022-10-16T15:25:34;1.38;;;0.70;;
9140;SDS011;46330;50.822;7.126;2022-10-16T15:28:05;3.50;;;1.10;;
9140;SDS011;46330;50.822;7.126;2022-10-16T15:30:35;2.55;;;0.80;;
9140;SDS011;46330;50.822;7.126;2022-10-16T15:33:04;1.63;;;1.20;;
9140;SDS011;46330;50.822;7.126;2022-10-16T15:35:37;1.60;;;1.08;;
9140;SDS011;46330;50.822;7.126;2022-10-16T15:38:05;3.65;;;1.20;;
9140;SDS011;46330;50.822;7.126;2022-10-16T15:40:33;3.15;;;1.60;;
9140;SDS011;46330;50.822;7.126;2022-10-16T15:43:00;5.07;;;1.38;;
9140;SDS011;46330;50.822;7.126;2022-10-16T15:45:28;1.45;;;1.00;;
9140;SDS011;46330;50.822;7.126;2022-10-16T15:47:58;4.10;;;1.00;;